sensor_id;sensor_type;location;lat;lon;timestamp;pressure;altitude;pressure_sealevel;temperature;humidity
70684;BME280;58263;48.146;11.440;2023-04-06T00:01:16;95893.34;;;0.69;57.50
70684;BME280;58263;48.146;11.440;2023-04-06T00:03:41;95887.91;;;0.62;57.39
70684;BME280;58263;48.146;11.440;2023-04-06T00:06:07;95890.38;;;0.63;57.38
70684;BME280;58263;48.146;11.440;2023-04-06T00:08:32;95892.84;;;0.57;57.51
70684;BME280;58263;48.146;11.440;2023-04-06T00:10:58;95888.72;;;0.62;57.54
70684;BME280;58263;48.146;11.440;2023-04-06T00:13:23;95886.59;;;0.66;57.35
70684;BME280;58263;48.146;11.440;2023-04-06T00:15:48;95887.41;;;0.58;57.75
70684;BME280;58263;48.146;11.440;2023-04-06T00:18:14;95878.00;;;0.39;58.01
70684;BME280;58263;48.146;11.440;2023-04-06T00:20:40;95885.25;;;0.37;58.45
70684;BME280;58263;48.146;11.440;2023-04-06T00:23:05;95882.63;;;0.37;58.46
70684;BME280;58263;48.146;11.440;2023-04-06T00:25:31;95882.13;;;0.33;58.47
70684;BME280;58263;48.146;11.440;2023-04-06T00:27:56;95878.81;;;0.31;59.00
70684;BME280;58263;48.146;11.440;2023-04-06T00:30:22;95879.81;;;0.39;58.88
70684;BME280;58263;48.146;11.440;2023-04-06T00:32:47;95878.50;;;0.35;58.94
70684;BME280;58263;48.146;11.440;2023-04-06T00:35:12;95887.03;;;0.20;58.92
70684;BME280;58263;48.146;11.440;2023-04-06T00:37:38;95871.22;;;0.20;59.26
70684;BME280;58263;48.146;11.440;2023-04-06T00:40:04;95876.19;;;0.23;59.16
70684;BME280;58263;48.146;11.440;2023-04-06T00:42:29;95885.72;;;0.16;59.60
70684;BME280;58263;48.146;11.440;2023-04-06T00:44:57;95880.25;;;0.17;59.67
70684;BME280;58263;48.146;11.440;2023-04-06T00:47:23;95879.47;;;0.25;59.58
70684;BME280;58263;48.146;11.440;2023-04-06T00:49:51;95880.47;;;0.32;59.30
70684;BME280;58263;48.146;11.440;2023-04-06T00:52:16;95880.16;;;0.27;59.45
70684;BME280;58263;48.146;11.440;2023-04-06T00:54:42;95880.78;;;0.29;59.40
70684;BME280;58263;48.146;11.440;2023-04-06T00:57:08;95877.97;;;0.14;59.83
70684;BME280;58263;48.146;11.440;2023-04-06T00:59:33;95882.88;;;0.01;60.20
70684;BME280;58263;48.146;11.440;2023-04-06T01:01:59;95884.66;;;-0.08;60.79
70684;BME280;58263;48.146;11.440;2023-04-06T01:04:24;95884.16;;;-0.11;60.67
70684;BME280;58263;48.146;11.440;2023-04-06T01:06:50;95879.22;;;-0.14;60.75
70684;BME280;58263;48.146;11.440;2023-04-06T01:09:19;95888.63;;;-0.12;60.63
70684;BME280;58263;48.146;11.440;2023-04-06T01:11:44;95884.00;;;-0.02;60.62
70684;BME280;58263;48.146;11.440;2023-04-06T01:14:10;95889.47;;;0.05;60.33
70684;BME280;58263;48.146;11.440;2023-04-06T01:16:36;95885.03;;;0.06;60.04
70684;BME280;58263;48.146;11.440;2023-04-06T01:19:08;95885.50;;;-0.07;60.54
70684;BME280;58263;48.146;11.440;2023-04-06T01:21:33;95876.06;;;-0.18;60.86
70684;BME280;58263;48.146;11.440;2023-04-06T01:23:59;95878.06;;;-0.12;60.56
70684;BME280;58263;48.146;11.440;2023-04-06T01:26:24;95870.63;;;-0.17;60.83
70684;BME280;58263;48.146;11.440;2023-04-06T01:28:50;95875.75;;;-0.15;60.94
70684;BME280;58263;48.146;11.440;2023-04-06T01:31:15;95873.44;;;-0.18;61.08
70684;BME280;58263;48.146;11.440;2023-04-06T01:33:41;95878.63;;;-0.43;61.75
70684;BME280;58263;48.146;11.440;2023-04-06T01:36:06;95869.38;;;-0.47;61.78
70684;BME280;58263;48.146;11.440;2023-04-06T01:38:32;95867.06;;;-0.50;62.23
70684;BME280;58263;48.146;11.440;2023-04-06T01:40:57;95870.13;;;-0.28;61.38
70684;BME280;58263;48.146;11.440;2023-04-06T01:43:22;95868.28;;;-0.28;61.50
70684;BME280;58263;48.146;11.440;2023-04-06T01:45:48;95858.56;;;-0.27;61.01
70684;BME280;58263;48.146;11.440;2023-04-06T01:48:13;95858.56;;;-0.27;61.09
70684;BME280;58263;48.146;11.440;2023-04-06T01:50:39;95856.91;;;-0.37;61.46
70684;BME280;58263;48.146;11.440;2023-04-06T01:53:04;95859.72;;;-0.30;61.12
70684;BME280;58263;48.146;11.440;2023-04-06T01:55:29;95857.56;;;-0.35;61.28
70684;BME280;58263;48.146;11.440;2023-04-06T01:57:55;95860.56;;;-0.29;61.05
70684;BME280;58263;48.146;11.440;2023-04-06T02:00:20;95861.00;;;-0.42;61.54
70684;BME280;58263;48.146;11.440;2023-04-06T02:02:46;95861.31;;;-0.45;61.72
70684;BME280;58263;48.146;11.440;2023-04-06T02:05:11;95863.78;;;-0.44;61.66
70684;BME280;58263;48.146;11.440;2023-04-06T02:07:36;95865.75;;;-0.46;61.80
70684;BME280;58263;48.146;11.440;2023-04-06T02:10:03;95862.44;;;-0.48;62.00
70684;BME280;58263;48.146;11.440;2023-04-06T02:12:28;95854.22;;;-0.53;61.93
70684;BME280;58263;48.146;11.440;2023-04-06T02:14:54;95856.16;;;-0.55;62.09
70684;BME280;58263;48.146;11.440;2023-04-06T02:17:19;95855.66;;;-0.59;62.21
70684;BME280;58263;48.146;11.440;2023-04-06T02:19:44;95853.34;;;-0.62;61.93
70684;BME280;58263;48.146;11.440;2023-04-06T02:22:10;95853.69;;;-0.57;62.07
70684;BME280;58263;48.146;11.440;2023-04-06T02:24:35;95857.63;;;-0.61;62.44
70684;BME280;58263;48.146;11.440;2023-04-06T02:27:01;95855.47;;;-0.65;62.01
70684;BME280;58263;48.146;11.440;2023-04-06T02:29:26;95852.50;;;-0.71;62.36
70684;BME280;58263;48.146;11.440;2023-04-06T02:31:52;95862.19;;;-0.71;62.59
70684;BME280;58263;48.146;11.440;2023-04-06T02:34:17;95853.78;;;-0.75;62.53
70684;BME280;58263;48.146;11.440;2023-04-06T02:36:46;95851.19;;;-0.66;62.71
70684;BME280;58263;48.146;11.440;2023-04-06T02:39:12;95853.38;;;-0.54;61.92
70684;BME280;58263;48.146;11.440;2023-04-06T02:41:38;95852.03;;;-0.58;61.89
70684;BME280;58263;48.146;11.440;2023-04-06T02:44:04;95847.41;;;-0.64;62.10
70684;BME280;58263;48.146;11.440;2023-04-06T02:46:29;95852.97;;;-0.67;62.23
70684;BME280;58263;48.146;11.440;2023-04-06T02:48:54;95843.66;;;-0.61;62.03
70684;BME280;58263;48.146;11.440;2023-04-06T02:51:20;95845.88;;;-0.75;62.08
70684;BME280;58263;48.146;11.440;2023-04-06T02:53:46;95847.16;;;-0.87;62.79
70684;BME280;58263;48.146;11.440;2023-04-06T02:56:11;95841.19;;;-0.89;62.89
70684;BME280;58263;48.146;11.440;2023-04-06T02:58:36;95848.78;;;-0.86;62.86
70684;BME280;58263;48.146;11.440;2023-04-06T03:01:03;95843.81;;;-0.89;62.96
70684;BME280;58263;48.146;11.440;2023-04-06T03:03:29;95845.81;;;-0.91;62.92
70684;BME280;58263;48.146;11.440;2023-04-06T03:05:55;95845.03;;;-0.75;62.33
70684;BME280;58263;48.146;11.440;2023-04-06T03:08:23;95845.84;;;-0.83;62.74
70684;BME280;58263;48.146;11.440;2023-04-06T03:10:49;95846.81;;;-0.84;62.53
70684;BME280;58263;48.146;11.440;2023-04-06T03:13:14;95837.09;;;-0.83;62.63
70684;BME280;58263;48.146;11.440;2023-04-06T03:15:40;95838.56;;;-0.89;62.37
70684;BME280;58263;48.146;11.440;2023-04-06T03:18:05;95842.66;;;-0.95;62.71
70684;BME280;58263;48.146;11.440;2023-04-06T03:20:30;95844.16;;;-0.92;62.53
70684;BME280;58263;48.146;11.440;2023-04-06T03:22:56;95837.81;;;-1.08;62.71
70684;BME280;58263;48.146;11.440;2023-04-06T03:25:21;95849.31;;;-1.09;62.84
70684;BME280;58263;48.146;11.440;2023-04-06T03:27:46;95843.31;;;-1.19;63.28
70684;BME280;58263;48.146;11.440;2023-04-06T03:30:12;95852.19;;;-1.20;63.15
70684;BME280;58263;48.146;11.440;2023-04-06T03:32:37;95849.59;;;-1.12;63.32
70684;BME280;58263;48.146;11.440;2023-04-06T03:35:03;95850.97;;;-1.08;63.11
70684;BME280;58263;48.146;11.440;2023-04-06T03:37:28;95853.09;;;-1.11;63.24
70684;BME280;58263;48.146;11.440;2023-04-06T03:39:54;95847.97;;;-1.13;63.41
70684;BME280;58263;48.146;11.440;2023-04-06T03:42:19;95854.88;;;-1.12;63.39
70684;BME280;58263;48.146;11.440;2023-04-06T03:44:45;95859.47;;;-1.14;63.77
70684;BME280;58263;48.146;11.440;2023-04-06T03:47:10;95858.19;;;-1.10;63.49
70684;BME280;58263;48.146;11.440;2023-04-06T03:49:36;95869.09;;;-1.05;63.26
70684;BME280;58263;48.146;11.440;2023-04-06T03:52:01;95865.41;;;-1.12;63.94
70684;BME280;58263;48.146;11.440;2023-04-06T03:54:26;95859.69;;;-1.07;63.52
70684;BME280;58263;48.146;11.440;2023-04-06T03:56:52;95868.34;;;-1.15;63.53
70684;BME280;58263;48.146;11.440;2023-04-06T03:59:17;95867.38;;;-1.14;63.58
70684;BME280;58263;48.146;11.440;2023-04-06T04:01:42;95866.03;;;-1.18;63.57
70684;BME280;58263;48.146;11.440;2023-04-06T04:04:08;95862.72;;;-1.20;63.79
70684;BME280;58263;48.146;11.440;2023-04-06T04:06:33;95870.81;;;-1.13;63.87
70684;BME280;58263;48.146;11.440;2023-04-06T04:08:59;95868.34;;;-1.15;63.87
70684;BME280;58263;48.146;11.440;2023-04-06T04:11:24;95870.66;;;-1.12;64.31
70684;BME280;58263;48.146;11.440;2023-04-06T04:13:49;95874.28;;;-1.13;63.85
70684;BME280;58263;48.146;11.440;2023-04-06T04:16:15;95870.28;;;-1.25;64.29
70684;BME280;58263;48.146;11.440;2023-04-06T04:18:40;95873.34;;;-1.30;64.41
70684;BME280;58263;48.146;11.440;2023-04-06T04:21:08;95872.84;;;-1.33;64.64
70684;BME280;58263;48.146;11.440;2023-04-06T04:23:34;95880.78;;;-1.25;64.74
70684;BME280;58263;48.146;11.440;2023-04-06T04:25:59;95871.09;;;-1.25;64.54
70684;BME280;58263;48.146;11.440;2023-04-06T04:28:24;95880.47;;;-1.22;65.07
70684;BME280;58263;48.146;11.440;2023-04-06T04:30:50;95867.25;;;-1.30;64.72
70684;BME280;58263;48.146;11.440;2023-04-06T04:33:15;95876.03;;;-1.22;64.43
70684;BME280;58263;48.146;11.440;2023-04-06T04:35:41;95880.16;;;-1.19;64.32
70684;BME280;58263;48.146;11.440;2023-04-06T04:38:06;95870.31;;;-1.17;64.50
70684;BME280;58263;48.146;11.440;2023-04-06T04:40:31;95882.63;;;-1.17;64.55
70684;BME280;58263;48.146;11.440;2023-04-06T04:42:57;95880.53;;;-1.14;64.44
70684;BME280;58263;48.146;11.440;2023-04-06T04:45:22;95883.81;;;-1.12;64.33
70684;BME280;58263;48.146;11.440;2023-04-06T04:47:47;95883.00;;;-1.12;64.42
70684;BME280;58263;48.146;11.440;2023-04-06T04:50:13;95878.81;;;-1.23;64.27
70684;BME280;58263;48.146;11.440;2023-04-06T04:52:38;95877.91;;;-1.14;64.26
70684;BME280;58263;48.146;11.440;2023-04-06T04:55:03;95879.78;;;-1.06;64.07
70684;BME280;58263;48.146;11.440;2023-04-06T04:57:29;95882.19;;;-1.13;64.08
70684;BME280;58263;48.146;11.440;2023-04-06T04:59:54;95879.56;;;-1.13;64.35
70684;BME280;58263;48.146;11.440;2023-04-06T05:02:20;95880.53;;;-1.14;64.27
70684;BME280;58263;48.146;11.440;2023-04-06T05:04:45;95879.56;;;-1.13;64.15
70684;BME280;58263;48.146;11.440;2023-04-06T05:07:10;95884.66;;;-1.11;64.43
70684;BME280;58263;48.146;11.440;2023-04-06T05:09:36;95878.94;;;-1.07;64.23
70684;BME280;58263;48.146;11.440;2023-04-06T05:12:01;95884.09;;;-0.97;64.13
70684;BME280;58263;48.146;11.440;2023-04-06T05:14:27;95884.28;;;-0.90;63.95
70684;BME280;58263;48.146;11.440;2023-04-06T05:16:53;95885.19;;;-0.81;63.96
70684;BME280;58263;48.146;11.440;2023-04-06T05:19:19;95884.09;;;-0.71;63.46
70684;BME280;58263;48.146;11.440;2023-04-06T05:21:44;95883.28;;;-0.63;63.55
70684;BME280;58263;48.146;11.440;2023-04-06T05:24:10;95879.22;;;-0.57;63.42
70684;BME280;58263;48.146;11.440;2023-04-06T05:26:35;95881.38;;;-0.53;63.30
70684;BME280;58263;48.146;11.440;2023-04-06T05:29:01;95884.81;;;-0.52;63.14
70684;BME280;58263;48.146;11.440;2023-04-06T05:31:26;95883.03;;;-0.52;63.29
70684;BME280;58263;48.146;11.440;2023-04-06T05:33:52;95884.84;;;-0.44;63.05
70684;BME280;58263;48.146;11.440;2023-04-06T05:36:17;95890.47;;;-0.39;63.14
70684;BME280;58263;48.146;11.440;2023-04-06T05:38:43;95884.25;;;-0.38;62.77
70684;BME280;58263;48.146;11.440;2023-04-06T05:41:08;95895.16;;;-0.24;62.67
70684;BME280;58263;48.146;11.440;2023-04-06T05:43:33;95895.19;;;-0.16;62.30
70684;BME280;58263;48.146;11.440;2023-04-06T05:45:59;95892.41;;;-0.14;62.08
70684;BME280;58263;48.146;11.440;2023-04-06T05:48:24;95886.66;;;-0.02;62.04
70684;BME280;58263;48.146;11.440;2023-04-06T05:50:50;95889.47;;;0.05;61.62
70684;BME280;58263;48.146;11.440;2023-04-06T05:53:16;95892.28;;;0.04;61.88
70684;BME280;58263;48.146;11.440;2023-04-06T05:55:41;95894.28;;;0.10;61.85
70684;BME280;58263;48.146;11.440;2023-04-06T05:58:07;95899.56;;;0.18;61.57
70684;BME280;58263;48.146;11.440;2023-04-06T06:00:32;95885.88;;;0.23;61.35
70684;BME280;58263;48.146;11.440;2023-04-06T06:02:58;95895.13;;;0.35;61.16
70684;BME280;58263;48.146;11.440;2023-04-06T06:05:23;95894.16;;;0.44;60.61
70684;BME280;58263;48.146;11.440;2023-04-06T06:07:48;95892.34;;;0.53;60.67
70684;BME280;58263;48.146;11.440;2023-04-06T06:10:14;95898.13;;;0.65;60.06
70684;BME280;58263;48.146;11.440;2023-04-06T06:12:40;95891.06;;;0.82;59.76
70684;BME280;58263;48.146;11.440;2023-04-06T06:15:06;95892.34;;;1.03;59.52
70684;BME280;58263;48.146;11.440;2023-04-06T06:17:31;95885.91;;;1.05;58.94
70684;BME280;58263;48.146;11.440;2023-04-06T06:19:57;95889.16;;;1.24;58.50
70684;BME280;58263;48.146;11.440;2023-04-06T06:22:22;95886.00;;;1.45;58.05
70684;BME280;58263;48.146;11.440;2023-04-06T06:24:47;95889.72;;;1.67;57.75
70684;BME280;58263;48.146;11.440;2023-04-06T06:27:14;95879.56;;;1.87;57.20
70684;BME280;58263;48.146;11.440;2023-04-06T06:29:40;95886.75;;;2.01;56.33
70684;BME280;58263;48.146;11.440;2023-04-06T06:32:06;95885.66;;;2.19;55.51
70684;BME280;58263;48.146;11.440;2023-04-06T06:34:34;95879.22;;;2.45;55.49
70684;BME280;58263;48.146;11.440;2023-04-06T06:36:59;95879.38;;;2.66;54.95
70684;BME280;58263;48.146;11.440;2023-04-06T06:39:25;95875.25;;;2.87;54.42
70684;BME280;58263;48.146;11.440;2023-04-06T06:41:51;95885.81;;;3.10;54.30
70684;BME280;58263;48.146;11.440;2023-04-06T06:44:17;95887.50;;;3.41;53.45
70684;BME280;58263;48.146;11.440;2023-04-06T06:46:42;95890.25;;;3.63;53.00
70684;BME280;58263;48.146;11.440;2023-04-06T06:49:08;95884.97;;;3.99;52.17
70684;BME280;58263;48.146;11.440;2023-04-06T06:51:33;95883.50;;;4.12;51.01
70684;BME280;58263;48.146;11.440;2023-04-06T06:53:59;95887.69;;;4.21;51.02
70684;BME280;58263;48.146;11.440;2023-04-06T06:56:24;95882.03;;;4.24;49.63
70684;BME280;58263;48.146;11.440;2023-04-06T06:58:51;95882.72;;;4.33;49.00
70684;BME280;58263;48.146;11.440;2023-04-06T07:01:17;95883.47;;;4.48;49.00
70684;BME280;58263;48.146;11.440;2023-04-06T07:03:42;95888.25;;;4.53;49.24
70684;BME280;58263;48.146;11.440;2023-04-06T07:06:07;95896.63;;;4.56;48.94
70684;BME280;58263;48.146;11.440;2023-04-06T07:08:33;95895.72;;;4.64;48.80
70684;BME280;58263;48.146;11.440;2023-04-06T07:10:58;95903.56;;;4.72;48.85
70684;BME280;58263;48.146;11.440;2023-04-06T07:13:24;95906.00;;;4.96;48.35
70684;BME280;58263;48.146;11.440;2023-04-06T07:15:50;95899.56;;;5.05;47.44
70684;BME280;58263;48.146;11.440;2023-04-06T07:18:19;95894.41;;;5.25;47.78
70684;BME280;58263;48.146;11.440;2023-04-06T07:20:45;95899.19;;;5.36;46.98
70684;BME280;58263;48.146;11.440;2023-04-06T07:23:10;95901.16;;;5.56;46.64
70684;BME280;58263;48.146;11.440;2023-04-06T07:25:35;95896.00;;;5.83;45.77
70684;BME280;58263;48.146;11.440;2023-04-06T07:28:02;95891.84;;;6.08;44.91
70684;BME280;58263;48.146;11.440;2023-04-06T07:30:28;95898.31;;;6.34;44.45
70684;BME280;58263;48.146;11.440;2023-04-06T07:32:54;95895.84;;;6.46;44.68
70684;BME280;58263;48.146;11.440;2023-04-06T07:35:25;95892.84;;;6.63;43.80
70684;BME280;58263;48.146;11.440;2023-04-06T07:37:51;95894.31;;;6.99;43.65
70684;BME280;58263;48.146;11.440;2023-04-06T07:40:16;95892.91;;;7.23;42.73
70684;BME280;58263;48.146;11.440;2023-04-06T07:42:44;95894.72;;;7.29;42.24
70684;BME280;58263;48.146;11.440;2023-04-06T07:45:09;95896.34;;;7.70;42.13
70684;BME280;58263;48.146;11.440;2023-04-06T07:47:35;95885.56;;;8.04;39.98
70684;BME280;58263;48.146;11.440;2023-04-06T07:50:00;95895.69;;;8.40;39.63
70684;BME280;58263;48.146;11.440;2023-04-06T07:52:26;95886.88;;;8.40;37.64
70684;BME280;58263;48.146;11.440;2023-04-06T07:54:51;95886.78;;;8.60;37.35
70684;BME280;58263;48.146;11.440;2023-04-06T07:57:18;95882.13;;;8.80;37.82
70684;BME280;58263;48.146;11.440;2023-04-06T07:59:43;95883.94;;;8.87;38.20
70684;BME280;58263;48.146;11.440;2023-04-06T08:02:08;95874.91;;;8.88;36.33
70684;BME280;58263;48.146;11.440;2023-04-06T08:04:35;95877.78;;;8.86;36.92
70684;BME280;58263;48.146;11.440;2023-04-06T08:07:00;95881.56;;;8.72;36.20
70684;BME280;58263;48.146;11.440;2023-04-06T08:09:26;95881.25;;;9.19;34.90
70684;BME280;58263;48.146;11.440;2023-04-06T08:11:52;95881.63;;;9.22;35.31
70684;BME280;58263;48.146;11.440;2023-04-06T08:14:17;95890.41;;;9.55;34.21
70684;BME280;58263;48.146;11.440;2023-04-06T08:16:42;95887.63;;;9.68;33.82
70684;BME280;58263;48.146;11.440;2023-04-06T08:19:08;95886.75;;;9.93;34.03
70684;BME280;58263;48.146;11.440;2023-04-06T08:21:37;95892.47;;;9.96;32.75
70684;BME280;58263;48.146;11.440;2023-04-06T08:24:03;95883.78;;;10.01;32.50
70684;BME280;58263;48.146;11.440;2023-04-06T08:26:29;95882.44;;;10.10;32.22
70684;BME280;58263;48.146;11.440;2023-04-06T08:28:54;95877.06;;;10.10;32.00
70684;BME280;58263;48.146;11.440;2023-04-06T08:31:20;95877.59;;;10.38;32.54
70684;BME280;58263;48.146;11.440;2023-04-06T08:33:45;95877.94;;;10.60;32.24
70684;BME280;58263;48.146;11.440;2023-04-06T08:36:14;95873.75;;;11.06;30.85
70684;BME280;58263;48.146;11.440;2023-04-06T08:38:40;95875.50;;;11.01;30.83
70684;BME280;58263;48.146;11.440;2023-04-06T08:41:10;95874.47;;;11.13;30.68
70684;BME280;58263;48.146;11.440;2023-04-06T08:46:17;95886.88;;;11.86;30.60
70684;BME280;58263;48.146;11.440;2023-04-06T08:48:43;95888.25;;;12.24;32.32
70684;BME280;58263;48.146;11.440;2023-04-06T08:51:10;95881.19;;;12.46;30.61
70684;BME280;58263;48.146;11.440;2023-04-06T08:53:36;95879.75;;;12.84;29.81
70684;BME280;58263;48.146;11.440;2023-04-06T08:56:02;95876.00;;;12.57;28.30
70684;BME280;58263;48.146;11.440;2023-04-06T08:58:32;95876.09;;;12.62;28.38
70684;BME280;58263;48.146;11.440;2023-04-06T09:00:59;95878.59;;;13.09;28.62
70684;BME280;58263;48.146;11.440;2023-04-06T09:03:26;95867.03;;;13.43;27.73
70684;BME280;58263;48.146;11.440;2023-04-06T09:05:52;95868.50;;;13.50;27.61
70684;BME280;58263;48.146;11.440;2023-04-06T09:08:17;95872.22;;;13.83;27.58
70684;BME280;58263;48.146;11.440;2023-04-06T09:10:43;95866.16;;;13.93;27.31
70684;BME280;58263;48.146;11.440;2023-04-06T09:13:09;95866.72;;;13.95;27.11
70684;BME280;58263;48.146;11.440;2023-04-06T09:15:34;95862.84;;;14.52;26.81
70684;BME280;58263;48.146;11.440;2023-04-06T09:18:00;95857.81;;;15.11;25.17
70684;BME280;58263;48.146;11.440;2023-04-06T09:20:26;95861.34;;;15.81;25.26
70684;BME280;58263;48.146;11.440;2023-04-06T09:22:53;95864.06;;;15.49;23.93
70684;BME280;58263;48.146;11.440;2023-04-06T09:25:21;95861.09;;;15.88;23.83
70684;BME280;58263;48.146;11.440;2023-04-06T09:27:48;95862.19;;;16.40;24.60
70684;BME280;58263;48.146;11.440;2023-04-06T09:30:15;95865.03;;;16.76;24.40
70684;BME280;58263;48.146;11.440;2023-04-06T09:32:49;95861.03;;;16.94;23.27
70684;BME280;58263;48.146;11.440;2023-04-06T09:35:15;95863.78;;;16.31;23.29
70684;BME280;58263;48.146;11.440;2023-04-06T09:37:42;95856.28;;;15.58;23.02
70684;BME280;58263;48.146;11.440;2023-04-06T09:40:08;95867.50;;;14.79;25.09
70684;BME280;58263;48.146;11.440;2023-04-06T09:42:34;95853.53;;;15.52;24.37
70684;BME280;58263;48.146;11.440;2023-04-06T09:45:00;95853.97;;;15.77;24.40
70684;BME280;58263;48.146;11.440;2023-04-06T09:47:26;95855.00;;;16.08;23.66
70684;BME280;58263;48.146;11.440;2023-04-06T09:49:56;95847.78;;;15.76;24.27
70684;BME280;58263;48.146;11.440;2023-04-06T09:52:27;95842.72;;;15.52;24.84
70684;BME280;58263;48.146;11.440;2023-04-06T09:54:55;95846.00;;;15.54;24.46
70684;BME280;58263;48.146;11.440;2023-04-06T09:57:26;95848.06;;;15.80;24.85
70684;BME280;58263;48.146;11.440;2023-04-06T10:00:07;95843.00;;;15.94;23.92
70684;BME280;58263;48.146;11.440;2023-04-06T10:08:00;95847.47;;;16.20;23.83
70684;BME280;58263;48.146;11.440;2023-04-06T10:10:28;95843.88;;;16.78;24.46
70684;BME280;58263;48.146;11.440;2023-04-06T10:12:54;95834.22;;;17.65;22.06
70684;BME280;58263;48.146;11.440;2023-04-06T10:15:21;95828.75;;;17.90;21.57
70684;BME280;58263;48.146;11.440;2023-04-06T10:17:46;95830.91;;;18.04;21.49
70684;BME280;58263;48.146;11.440;2023-04-06T10:20:17;95824.72;;;17.57;21.51
70684;BME280;58263;48.146;11.440;2023-04-06T10:23:02;95827.91;;;16.66;23.21
70684;BME280;58263;48.146;11.440;2023-04-06T10:25:30;95818.47;;;17.67;23.25
70684;BME280;58263;48.146;11.440;2023-04-06T10:28:01;95818.91;;;18.26;21.71
70684;BME280;58263;48.146;11.440;2023-04-06T10:30:27;95813.91;;;18.43;21.66
70684;BME280;58263;48.146;11.440;2023-04-06T10:32:53;95817.78;;;18.32;21.26
70684;BME280;58263;48.146;11.440;2023-04-06T10:35:18;95818.00;;;19.65;21.20
70684;BME280;58263;48.146;11.440;2023-04-06T10:37:52;95821.97;;;21.32;18.83
70684;BME280;58263;48.146;11.440;2023-04-06T10:40:20;95814.84;;;20.11;19.04
70684;BME280;58263;48.146;11.440;2023-04-06T10:42:46;95817.72;;;18.97;21.18
70684;BME280;58263;48.146;11.440;2023-04-06T10:45:23;95810.44;;;18.82;19.54
70684;BME280;58263;48.146;11.440;2023-04-06T10:47:49;95815.34;;;19.89;18.82
70684;BME280;58263;48.146;11.440;2023-04-06T10:50:17;95814.41;;;20.90;18.59
70684;BME280;58263;48.146;11.440;2023-04-06T10:52:46;95813.38;;;18.96;19.29
70684;BME280;58263;48.146;11.440;2023-04-06T10:55:16;95808.41;;;20.02;19.34
70684;BME280;58263;48.146;11.440;2023-04-06T10:57:41;95801.53;;;18.71;20.43
70684;BME280;58263;48.146;11.440;2023-04-06T11:00:08;95805.41;;;18.00;21.15
70684;BME280;58263;48.146;11.440;2023-04-06T11:02:36;95800.78;;;19.74;19.47
70684;BME280;58263;48.146;11.440;2023-04-06T11:05:03;95798.25;;;21.79;17.50
70684;BME280;58263;48.146;11.440;2023-04-06T11:07:29;95793.28;;;22.78;16.40
70684;BME280;58263;48.146;11.440;2023-04-06T11:09:56;95788.25;;;22.94;16.33
70684;BME280;58263;48.146;11.440;2023-04-06T11:12:26;95797.31;;;21.56;17.59
70684;BME280;58263;48.146;11.440;2023-04-06T11:14:59;95797.00;;;20.43;18.02
70684;BME280;58263;48.146;11.440;2023-04-06T11:17:33;95795.50;;;20.94;17.35
70684;BME280;58263;48.146;11.440;2023-04-06T11:19:59;95780.03;;;22.94;15.89
70684;BME280;58263;48.146;11.440;2023-04-06T11:22:25;95773.00;;;25.82;15.07
70684;BME280;58263;48.146;11.440;2023-04-06T11:24:51;95777.50;;;26.73;13.72
70684;BME280;58263;48.146;11.440;2023-04-06T11:27:18;95779.50;;;27.06;13.97
70684;BME280;58263;48.146;11.440;2023-04-06T11:29:44;95779.72;;;29.25;12.22
70684;BME280;58263;48.146;11.440;2023-04-06T11:32:20;95770.41;;;29.61;12.30
70684;BME280;58263;48.146;11.440;2023-04-06T11:34:47;95773.22;;;28.18;12.57
70684;BME280;58263;48.146;11.440;2023-04-06T11:37:12;95771.25;;;29.62;11.51
70684;BME280;58263;48.146;11.440;2023-04-06T11:42:09;95757.31;;;30.86;10.69
70684;BME280;58263;48.146;11.440;2023-04-06T11:44:43;95757.69;;;30.49;10.46
70684;BME280;58263;48.146;11.440;2023-04-06T11:47:11;95761.16;;;31.37;10.49
70684;BME280;58263;48.146;11.440;2023-04-06T11:49:39;95750.19;;;31.83;9.92
70684;BME280;58263;48.146;11.440;2023-04-06T11:52:17;95750.81;;;30.78;9.85
70684;BME280;58263;48.146;11.440;2023-04-06T11:54:44;95739.81;;;30.14;10.29
70684;BME280;58263;48.146;11.440;2023-04-06T11:57:10;95747.78;;;27.42;11.89
70684;BME280;58263;48.146;11.440;2023-04-06T11:59:35;95748.69;;;26.91;12.78
70684;BME280;58263;48.146;11.440;2023-04-06T12:02:02;95750.31;;;25.29;13.45
70684;BME280;58263;48.146;11.440;2023-04-06T12:04:27;95746.59;;;24.55;14.27
70684;BME280;58263;48.146;11.440;2023-04-06T12:06:52;95732.44;;;26.26;12.79
70684;BME280;58263;48.146;11.440;2023-04-06T12:09:18;95733.59;;;28.23;11.79
70684;BME280;58263;48.146;11.440;2023-04-06T12:11:43;95737.53;;;27.88;12.73
70684;BME280;58263;48.146;11.440;2023-04-06T12:14:09;95745.81;;;26.88;12.76
70684;BME280;58263;48.146;11.440;2023-04-06T12:16:35;95744.53;;;26.85;12.57
70684;BME280;58263;48.146;11.440;2023-04-06T12:19:00;95730.88;;;27.77;12.41
70684;BME280;58263;48.146;11.440;2023-04-06T12:21:35;95732.94;;;25.81;13.40
70684;BME280;58263;48.146;11.440;2023-04-06T12:24:03;95730.63;;;23.59;14.47
70684;BME280;58263;48.146;11.440;2023-04-06T12:26:29;95736.31;;;22.44;15.80
70684;BME280;58263;48.146;11.440;2023-04-06T12:28:55;95738.66;;;21.67;16.65
70684;BME280;58263;48.146;11.440;2023-04-06T12:31:21;95725.72;;;22.79;15.41
70684;BME280;58263;48.146;11.440;2023-04-06T12:33:48;95729.69;;;21.94;16.66
70684;BME280;58263;48.146;11.440;2023-04-06T12:36:19;95724.34;;;22.68;15.46
70684;BME280;58263;48.146;11.440;2023-04-06T12:38:46;95721.97;;;22.38;16.07
70684;BME280;58263;48.146;11.440;2023-04-06T12:41:12;95724.41;;;21.56;16.63
70684;BME280;58263;48.146;11.440;2023-04-06T12:43:39;95717.91;;;25.78;14.21
70684;BME280;58263;48.146;11.440;2023-04-06T12:46:04;95715.16;;;26.47;13.87
70684;BME280;58263;48.146;11.440;2023-04-06T12:48:30;95708.28;;;28.21;12.64
70684;BME280;58263;48.146;11.440;2023-04-06T12:50:58;95711.88;;;29.27;11.88
70684;BME280;58263;48.146;11.440;2023-04-06T12:53:24;95696.88;;;30.21;11.18
70684;BME280;58263;48.146;11.440;2023-04-06T12:55:49;95707.22;;;29.76;10.75
70684;BME280;58263;48.146;11.440;2023-04-06T12:58:15;95706.44;;;27.08;12.78